createdAt,value
2017-11-13T00:01:55.321Z,4.40
2017-11-13T00:04:23.624Z,4.35
2017-11-13T00:06:51.781Z,4.05
2017-11-13T00:09:20.700Z,2.75
2017-11-13T00:11:48.858Z,4.72
2017-11-13T00:14:17.138Z,3.65
2017-11-13T00:16:45.288Z,4.20
2017-11-13T00:19:13.435Z,4.07
2017-11-13T00:21:41.604Z,3.75
2017-11-13T00:24:09.823Z,3.42
2017-11-13T00:26:37.976Z,3.90
2017-11-13T00:29:06.192Z,3.92
2017-11-13T00:31:34.335Z,3.05
2017-11-13T00:34:06.226Z,3.95
2017-11-13T00:36:34.391Z,3.20
2017-11-13T00:39:02.565Z,4.65
2017-11-13T00:41:30.727Z,3.33
2017-11-13T00:43:59.743Z,3.12
2017-11-13T00:46:27.890Z,3.20
2017-11-13T00:48:56.099Z,4.10
2017-11-13T00:51:24.909Z,3.70
2017-11-13T00:53:54.069Z,3.22
2017-11-13T00:56:22.216Z,4.25
2017-11-13T00:58:50.680Z,4.25
2017-11-13T01:01:18.823Z,4.12
2017-11-13T01:03:49.028Z,3.75
2017-11-13T01:06:17.168Z,3.25
2017-11-13T01:08:46.092Z,3.15
2017-11-13T01:11:14.251Z,3.45
2017-11-13T01:13:46.213Z,3.95
2017-11-13T01:16:14.364Z,6.47
2017-11-13T01:18:42.568Z,5.50
2017-11-13T01:21:11.347Z,5.22
2017-11-13T01:23:40.575Z,7.78
2017-11-13T01:26:08.722Z,4.62
2017-11-13T01:28:36.871Z,5.75
2017-11-13T01:31:05.026Z,4.05
2017-11-13T01:33:33.255Z,4.57
2017-11-13T01:36:01.627Z,6.87
2017-11-13T01:38:29.786Z,5.50
2017-11-13T01:40:57.961Z,5.62
2017-11-13T01:43:26.876Z,5.32
2017-11-13T01:45:55.023Z,7.03
2017-11-13T01:48:23.188Z,5.75
2017-11-13T01:50:51.325Z,4.60
2017-11-13T01:53:19.458Z,5.03
2017-11-13T01:55:47.604Z,5.22
2017-11-13T01:58:15.765Z,3.80
2017-11-13T02:00:43.932Z,5.40
2017-11-13T02:03:12.087Z,4.87
2017-11-13T02:05:40.247Z,6.45
2017-11-13T02:08:08.437Z,5.87
2017-11-13T02:10:36.606Z,4.95
2017-11-13T02:13:04.762Z,4.93
2017-11-13T02:15:35.002Z,6.03
2017-11-13T02:18:03.171Z,5.70
2017-11-13T02:20:31.319Z,7.18
2017-11-13T02:22:59.480Z,5.62
2017-11-13T02:25:28.485Z,5.28
2017-11-13T02:27:56.741Z,6.07
2017-11-13T02:30:25.668Z,6.28
2017-11-13T02:32:53.824Z,6.62
2017-11-13T02:35:24.209Z,4.78
2017-11-13T02:37:52.373Z,5.20
2017-11-13T02:40:20.535Z,5.18
2017-11-13T02:42:48.702Z,5.20
2017-11-13T02:45:16.962Z,4.93
2017-11-13T02:47:45.140Z,4.53
2017-11-13T02:50:13.308Z,5.25
2017-11-13T02:52:41.455Z,5.25
2017-11-13T02:55:10.474Z,4.60
2017-11-13T02:57:38.631Z,6.40
2017-11-13T03:00:08.431Z,5.30
2017-11-13T03:02:37.353Z,6.53
2017-11-13T03:05:05.617Z,6.95
2017-11-13T03:07:33.778Z,6.10
2017-11-13T03:10:02.319Z,7.90
2017-11-13T03:12:30.471Z,6.15
2017-11-13T03:14:58.782Z,7.05
2017-11-13T03:17:26.931Z,8.65
2017-11-13T03:19:55.107Z,8.48
2017-11-13T03:22:23.258Z,6.57
2017-11-13T03:24:51.427Z,7.72
2017-11-13T03:27:19.596Z,6.90
2017-11-13T03:29:48.521Z,9.48
2017-11-13T03:32:16.878Z,6.25
2017-11-13T03:34:45.131Z,6.22
2017-11-13T03:37:13.299Z,6.47
2017-11-13T03:39:42.278Z,6.25
2017-11-13T03:42:10.455Z,7.37
2017-11-13T03:44:38.665Z,6.62
2017-11-13T03:47:06.824Z,10.75
2017-11-13T03:49:35.762Z,6.60
2017-11-13T03:52:04.376Z,6.40
2017-11-13T03:54:38.400Z,5.90
2017-11-13T03:57:07.315Z,6.25
2017-11-13T03:59:35.479Z,7.47
2017-11-13T04:02:04.135Z,6.87
2017-11-13T04:04:32.291Z,7.55
2017-11-13T04:07:00.451Z,6.72
2017-11-13T04:09:28.613Z,9.02
2017-11-13T04:11:56.782Z,6.10
2017-11-13T04:14:24.922Z,6.55
2017-11-13T04:16:53.083Z,5.65
2017-11-13T04:19:21.240Z,6.25
2017-11-13T04:21:49.394Z,6.03
2017-11-13T04:24:17.643Z,8.40
2017-11-13T04:26:45.790Z,5.40
2017-11-13T04:29:14.706Z,5.35
2017-11-13T04:31:42.859Z,6.60
2017-11-13T04:34:11.152Z,8.68
2017-11-13T04:36:39.330Z,6.18
2017-11-13T04:39:07.500Z,5.80
2017-11-13T04:41:36.559Z,6.07
2017-11-13T04:44:08.354Z,7.60
2017-11-13T04:46:36.608Z,6.87
2017-11-13T04:49:04.768Z,6.05
2017-11-13T04:51:32.924Z,5.62
2017-11-13T04:54:01.079Z,5.50
2017-11-13T04:56:29.225Z,6.30
2017-11-13T04:58:57.375Z,5.65
2017-11-13T05:01:25.555Z,5.57
2017-11-13T05:03:58.048Z,6.00
2017-11-13T05:06:26.968Z,5.75
2017-11-13T05:08:55.145Z,7.65
2017-11-13T05:11:23.288Z,5.97
2017-11-13T05:13:51.565Z,6.00
2017-11-13T05:16:19.721Z,11.68
2017-11-13T05:18:48.655Z,7.25
2017-11-13T05:21:17.033Z,6.68
2017-11-13T05:23:46.354Z,7.80
2017-11-13T05:26:14.513Z,5.95
2017-11-13T05:28:42.670Z,7.97
2017-11-13T05:31:10.829Z,7.47
2017-11-13T05:33:39.817Z,6.90
2017-11-13T05:36:07.966Z,7.12
2017-11-13T05:38:36.115Z,6.60
2017-11-13T05:41:04.282Z,6.95
2017-11-13T05:43:36.194Z,6.87
2017-11-13T05:46:04.340Z,7.50
2017-11-13T05:48:33.565Z,8.50
2017-11-13T05:51:01.720Z,9.95
2017-11-13T05:53:29.941Z,8.80
2017-11-13T05:55:58.083Z,9.25
2017-11-13T05:58:26.991Z,8.20
2017-11-13T06:00:55.148Z,9.57
2017-11-13T06:03:23.297Z,9.00
2017-11-13T06:05:51.457Z,6.57
2017-11-13T06:08:19.622Z,7.62
2017-11-13T06:10:47.782Z,7.35
2017-11-13T06:13:15.995Z,9.70
2017-11-13T06:15:44.155Z,9.43
2017-11-13T06:18:12.334Z,10.35
2017-11-13T06:20:41.141Z,8.30
2017-11-13T06:23:09.340Z,8.95
2017-11-13T06:25:37.484Z,10.02
2017-11-13T06:28:06.336Z,7.95
2017-11-13T06:30:34.826Z,10.73
2017-11-13T06:33:03.389Z,10.45
2017-11-13T06:35:31.548Z,8.27
2017-11-13T06:38:00.451Z,9.25
2017-11-13T06:40:28.867Z,9.63
2017-11-13T06:42:57.881Z,7.25
2017-11-13T06:45:26.204Z,8.90
2017-11-13T06:47:54.367Z,9.57
2017-11-13T06:50:22.526Z,12.05
2017-11-13T06:52:50.704Z,12.20
2017-11-13T06:55:19.108Z,9.70
2017-11-13T06:57:48.884Z,12.55
2017-11-13T07:00:18.578Z,12.27
2017-11-13T07:02:47.123Z,13.85
2017-11-13T07:05:20.398Z,14.07
2017-11-13T07:07:48.588Z,12.35
2017-11-13T07:10:16.972Z,12.20
2017-11-13T07:12:45.153Z,11.25
2017-11-13T07:15:16.886Z,12.40
2017-11-13T07:17:45.062Z,15.55
2017-11-13T07:20:13.937Z,15.88
2017-11-13T07:22:42.103Z,12.57
2017-11-13T07:25:17.947Z,18.50
2017-11-13T07:27:46.891Z,12.90
2017-11-13T07:30:16.909Z,15.15
2017-11-13T07:32:45.090Z,12.70
2017-11-13T07:35:14.198Z,13.23
2017-11-13T07:37:42.435Z,10.55
2017-11-13T07:40:10.589Z,15.48
2017-11-13T07:42:38.762Z,13.45
2017-11-13T07:45:13.175Z,16.40
2017-11-13T07:47:42.109Z,14.20
2017-11-13T07:50:11.141Z,12.88
2017-11-13T07:52:39.336Z,14.77
2017-11-13T07:55:08.159Z,16.30
2017-11-13T07:57:37.000Z,13.23
2017-11-13T08:00:05.194Z,15.45
2017-11-13T08:02:33.413Z,11.82
2017-11-13T08:05:02.613Z,13.00
2017-11-13T08:07:30.767Z,13.40
2017-11-13T08:09:58.920Z,10.50
2017-11-13T08:12:27.107Z,12.88
2017-11-13T08:15:00.322Z,13.70
2017-11-13T08:17:30.510Z,9.65
2017-11-13T08:19:58.664Z,10.30
2017-11-13T08:22:27.601Z,17.23
2017-11-13T08:24:55.766Z,12.63
2017-11-13T08:27:23.913Z,12.20
2017-11-13T08:29:52.833Z,9.98
2017-11-13T08:32:21.664Z,10.30
2017-11-13T08:34:50.899Z,11.02
2017-11-13T08:37:19.068Z,12.80
2017-11-13T08:39:47.972Z,8.40
2017-11-13T08:42:16.135Z,7.50
2017-11-13T08:44:44.421Z,10.55
2017-11-13T08:47:13.475Z,10.48
2017-11-13T08:49:41.640Z,8.80
2017-11-13T08:52:09.788Z,8.05
2017-11-13T08:54:38.945Z,7.25
2017-11-13T08:57:07.862Z,7.62
2017-11-13T08:59:36.023Z,7.20
2017-11-13T09:02:04.158Z,6.18
2017-11-13T09:04:32.295Z,4.97
2017-11-13T09:07:00.444Z,8.25
2017-11-13T09:09:29.278Z,8.68
2017-11-13T09:11:57.456Z,5.78
2017-11-13T09:14:29.433Z,6.75
2017-11-13T09:17:00.805Z,5.85
2017-11-13T09:19:28.991Z,7.07
2017-11-13T09:21:57.978Z,7.37
2017-11-13T09:24:26.891Z,6.60
2017-11-13T09:26:55.040Z,6.03
2017-11-13T09:29:23.948Z,7.57
2017-11-13T09:31:52.104Z,6.03
2017-11-13T09:34:20.423Z,8.32
2017-11-13T09:36:48.569Z,6.55
2017-11-13T09:39:16.714Z,7.95
2017-11-13T09:41:44.917Z,6.25
2017-11-13T09:44:14.156Z,9.20
2017-11-13T09:46:42.346Z,8.52
2017-11-13T09:49:11.423Z,8.93
2017-11-13T09:51:39.661Z,9.20
2017-11-13T09:54:07.890Z,10.10
2017-11-13T09:56:36.152Z,9.15
2017-11-13T09:59:04.350Z,8.60
2017-11-13T10:01:32.544Z,10.57
2017-11-13T10:04:04.965Z,8.57
2017-11-13T10:06:33.219Z,7.93
2017-11-13T10:09:01.435Z,7.43
2017-11-13T10:11:29.729Z,10.60
2017-11-13T10:13:57.980Z,7.22
2017-11-13T10:16:26.223Z,7.35
2017-11-13T10:18:54.475Z,6.60
2017-11-13T10:21:23.441Z,7.28
2017-11-13T10:23:51.749Z,7.32
2017-11-13T10:26:20.014Z,5.03
2017-11-13T10:28:48.210Z,6.00
2017-11-13T10:31:16.400Z,8.13
2017-11-13T10:33:44.589Z,8.70
2017-11-13T10:36:12.853Z,6.28
2017-11-13T10:38:41.404Z,5.90
2017-11-13T10:41:10.375Z,7.10
2017-11-13T10:43:38.626Z,8.15
2017-11-13T10:46:06.853Z,12.13
2017-11-13T10:48:35.065Z,6.03
2017-11-13T10:51:03.256Z,8.65
2017-11-13T10:53:39.300Z,7.80
2017-11-13T10:56:07.529Z,5.95
2017-11-13T10:58:35.755Z,5.60
2017-11-13T11:01:03.949Z,5.62
2017-11-13T11:03:32.145Z,5.18
2017-11-13T11:06:01.127Z,5.15
2017-11-13T11:08:29.318Z,4.85
2017-11-13T11:10:58.348Z,6.65
2017-11-13T11:13:27.122Z,7.10
2017-11-13T11:15:55.306Z,8.85
2017-11-13T11:18:23.515Z,6.50
2017-11-13T11:20:57.376Z,5.55
2017-11-13T11:23:41.494Z,6.50
2017-11-13T11:26:28.505Z,6.97
2017-11-13T11:29:02.246Z,5.40
2017-11-13T11:31:34.391Z,5.05
2017-11-13T11:34:13.365Z,4.60
2017-11-13T11:37:01.389Z,5.12
2017-11-13T11:39:29.596Z,5.25
2017-11-13T11:41:57.842Z,4.87
2017-11-13T11:44:26.697Z,3.78
2017-11-13T11:46:55.642Z,5.22
2017-11-13T11:49:29.395Z,5.28
2017-11-13T11:51:58.469Z,6.18
2017-11-13T11:54:29.191Z,6.55
2017-11-13T11:57:00.910Z,10.23
2017-11-13T11:59:29.178Z,9.43
2017-11-13T12:01:57.385Z,7.97
2017-11-13T12:04:25.595Z,10.65
2017-11-13T12:06:53.844Z,6.87
2017-11-13T12:09:22.074Z,11.23
2017-11-13T12:11:50.278Z,9.50
2017-11-13T12:14:19.555Z,18.20
2017-11-13T12:16:47.770Z,11.45
2017-11-13T12:19:16.028Z,10.77
2017-11-13T12:21:44.222Z,7.80
2017-11-13T12:24:12.442Z,7.85
2017-11-13T12:26:41.790Z,8.48
2017-11-13T12:29:09.992Z,7.50
2017-11-13T12:31:38.183Z,8.10
2017-11-13T12:34:10.827Z,8.60
2017-11-13T12:36:42.990Z,9.10
2017-11-13T12:39:11.215Z,6.72
2017-11-13T12:41:39.554Z,9.07
2017-11-13T12:44:07.822Z,8.25
2017-11-13T12:46:36.044Z,10.35
2017-11-13T12:49:04.317Z,7.43
2017-11-13T12:51:32.520Z,10.93
2017-11-13T12:54:00.786Z,9.77
2017-11-13T12:56:29.037Z,8.90
2017-11-13T12:58:58.042Z,9.02
2017-11-13T13:01:26.258Z,7.85
2017-11-13T13:03:54.458Z,9.18
2017-11-13T13:06:22.677Z,11.80
2017-11-13T13:08:52.079Z,8.73
2017-11-13T13:11:20.439Z,6.97
2017-11-13T13:13:52.288Z,10.02
2017-11-13T13:16:27.060Z,10.52
2017-11-13T13:18:55.281Z,6.97
2017-11-13T13:21:23.479Z,4.87
2017-11-13T13:23:53.766Z,4.68
2017-11-13T13:26:22.002Z,7.72
2017-11-13T13:28:50.263Z,5.62
2017-11-13T13:31:20.499Z,6.60
2017-11-13T13:33:50.189Z,7.65
2017-11-13T13:36:18.550Z,10.73
2017-11-13T13:38:46.779Z,6.82
2017-11-13T13:41:15.010Z,6.68
2017-11-13T13:43:45.304Z,7.25
2017-11-13T13:46:13.612Z,8.10
2017-11-13T13:48:42.850Z,7.10
2017-11-13T13:51:11.096Z,6.50
2017-11-13T13:53:40.240Z,5.45
2017-11-13T13:56:08.453Z,5.20
2017-11-13T13:58:36.931Z,4.80
2017-11-13T14:01:05.141Z,11.30
2017-11-13T14:03:34.895Z,5.80
2017-11-13T14:06:03.468Z,9.18
2017-11-13T14:08:32.132Z,9.65
2017-11-13T14:11:02.079Z,6.20
2017-11-13T14:13:30.344Z,7.95
2017-11-13T14:15:58.550Z,6.57
2017-11-13T14:18:26.746Z,6.72
2017-11-13T14:20:55.767Z,8.00
2017-11-13T14:23:27.560Z,8.85
2017-11-13T14:25:57.612Z,8.60
2017-11-13T14:28:26.964Z,7.00
2017-11-13T14:30:55.650Z,5.43
2017-11-13T14:33:24.235Z,6.97
2017-11-13T14:35:54.606Z,5.37
2017-11-13T14:38:22.898Z,11.07
2017-11-13T14:40:51.112Z,6.72
2017-11-13T14:43:19.358Z,4.18
2017-11-13T14:45:49.712Z,8.57
2017-11-13T14:48:18.685Z,5.97
2017-11-13T14:50:47.131Z,7.10
2017-11-13T14:53:16.220Z,5.28
2017-11-13T14:55:44.428Z,5.35
2017-11-13T14:58:13.104Z,5.70
2017-11-13T15:00:41.380Z,5.32
2017-11-13T15:03:09.586Z,7.60
2017-11-13T15:05:38.033Z,4.15
2017-11-13T15:08:06.225Z,5.00
2017-11-13T15:10:34.505Z,8.23
2017-11-13T15:13:02.668Z,6.93
2017-11-13T15:15:32.500Z,7.68
2017-11-13T15:18:00.645Z,5.80
2017-11-13T15:20:31.128Z,9.27
2017-11-13T15:22:59.303Z,5.95
2017-11-13T15:25:27.673Z,8.25
2017-11-13T15:27:55.812Z,7.50
2017-11-13T15:30:23.976Z,5.85
2017-11-13T15:32:52.907Z,5.82
2017-11-13T15:35:21.377Z,9.27
2017-11-13T15:37:49.544Z,8.73
2017-11-13T15:40:17.709Z,8.02
2017-11-13T15:42:45.875Z,6.18
2017-11-13T15:45:14.154Z,7.90
2017-11-13T15:47:42.305Z,12.25
2017-11-13T15:50:10.478Z,9.63
2017-11-13T15:52:38.637Z,6.00
2017-11-13T15:55:06.881Z,7.40
2017-11-13T15:57:35.039Z,9.25
2017-11-13T16:00:03.225Z,14.63
2017-11-13T16:02:31.377Z,8.07
2017-11-13T16:05:03.229Z,9.95
2017-11-13T16:07:31.389Z,11.15
2017-11-13T16:10:00.421Z,11.02
2017-11-13T16:12:28.580Z,7.47
2017-11-13T16:14:56.749Z,10.25
2017-11-13T16:17:25.775Z,8.10
2017-11-13T16:19:53.912Z,7.32
2017-11-13T16:22:22.463Z,11.85
2017-11-13T16:24:50.675Z,12.27
2017-11-13T16:27:18.829Z,15.13
2017-11-13T16:29:46.974Z,13.25
2017-11-13T16:32:16.388Z,15.55
2017-11-13T16:34:44.731Z,12.05
2017-11-13T16:37:12.883Z,12.80
2017-11-13T16:39:41.078Z,15.52
2017-11-13T16:42:09.315Z,12.48
2017-11-13T16:44:37.592Z,11.65
2017-11-13T16:47:05.797Z,14.15
2017-11-13T16:49:33.953Z,13.43
2017-11-13T16:52:02.123Z,10.43
2017-11-13T16:54:30.403Z,11.10
2017-11-13T16:56:58.573Z,11.57
2017-11-13T16:59:27.512Z,13.18
2017-11-13T17:01:55.663Z,16.17
2017-11-13T17:04:23.911Z,21.48
2017-11-13T17:06:52.076Z,13.80
2017-11-13T17:09:21.001Z,15.93
2017-11-13T17:11:49.135Z,7.85
2017-11-13T17:14:17.285Z,10.00
2017-11-13T17:16:45.428Z,7.87
2017-11-13T17:19:13.580Z,7.25
2017-11-13T17:21:44.601Z,7.25
2017-11-13T17:24:13.610Z,9.85
2017-11-13T17:26:43.402Z,8.55
2017-11-13T17:29:11.574Z,10.68
2017-11-13T17:31:40.506Z,10.00
2017-11-13T17:34:08.750Z,9.23
2017-11-13T17:36:37.663Z,10.18
2017-11-13T17:39:05.810Z,8.68
2017-11-13T17:41:34.710Z,9.95
2017-11-13T17:44:04.756Z,9.00
2017-11-13T17:46:33.818Z,11.43
2017-11-13T17:49:01.998Z,15.30
2017-11-13T17:51:31.118Z,11.38
2017-11-13T17:54:01.307Z,7.30
2017-11-13T17:56:30.330Z,10.88
2017-11-13T17:58:58.500Z,14.77
2017-11-13T18:01:26.663Z,10.15
2017-11-13T18:03:56.600Z,13.07
2017-11-13T18:06:24.756Z,21.75
2017-11-13T18:08:52.921Z,17.70
2017-11-13T18:11:21.926Z,18.98
2017-11-13T18:13:50.702Z,23.70
2017-11-13T18:16:19.857Z,25.73
2017-11-13T18:18:48.014Z,13.98
2017-11-13T18:21:18.031Z,12.75
2017-11-13T18:23:46.265Z,12.05
2017-11-13T18:26:15.176Z,11.52
2017-11-13T18:28:45.127Z,13.85
2017-11-13T18:31:13.524Z,19.62
2017-11-13T18:33:41.736Z,15.50
2017-11-13T18:36:09.908Z,15.50
2017-11-13T18:38:38.459Z,19.85
2017-11-13T18:41:06.630Z,23.00
2017-11-13T18:43:35.969Z,26.62
2017-11-13T18:46:04.121Z,9.00
2017-11-13T18:48:32.294Z,13.77
2017-11-13T18:51:01.006Z,10.02
2017-11-13T18:53:30.204Z,14.05
2017-11-13T18:55:58.346Z,16.48
2017-11-13T18:58:26.524Z,19.25
2017-11-13T19:00:55.545Z,19.35
2017-11-13T19:03:27.864Z,16.77
2017-11-13T19:05:56.051Z,17.90
2017-11-13T19:08:26.211Z,16.10
2017-11-13T19:10:55.143Z,15.05
2017-11-13T19:13:24.427Z,15.82
2017-11-13T19:15:53.018Z,19.62
2017-11-13T19:18:21.199Z,13.20
2017-11-13T19:20:49.359Z,17.83
2017-11-13T19:23:17.528Z,20.62
2017-11-13T19:25:45.773Z,22.08
2017-11-13T19:28:14.707Z,14.55
2017-11-13T19:31:19.329Z,15.13
2017-11-13T19:33:51.032Z,21.27
2017-11-13T19:36:19.344Z,18.00
2017-11-13T19:42:02.075Z,19.48
2017-11-13T19:44:31.867Z,17.15
2017-11-13T19:50:36.308Z,21.05
2017-11-13T19:53:05.369Z,23.60
2017-11-13T19:55:33.579Z,18.92
2017-11-13T19:58:02.497Z,12.85
2017-11-13T20:00:30.808Z,16.05
2017-11-13T20:02:58.995Z,16.25
2017-11-13T20:11:34.561Z,18.37
2017-11-13T20:14:04.000Z,25.88
2017-11-13T20:16:32.520Z,24.25
2017-11-13T20:19:01.000Z,28.38
2017-11-13T20:21:29.485Z,31.17
2017-11-13T20:23:57.950Z,28.70
2017-11-13T20:26:26.385Z,21.98
2017-11-13T20:28:55.431Z,29.05
2017-11-13T20:31:24.427Z,24.05
2017-11-13T20:33:52.715Z,18.23
2017-11-13T20:36:21.281Z,15.32
2017-11-13T20:38:49.502Z,17.08
2017-11-13T20:41:17.683Z,18.62
2017-11-13T20:43:46.697Z,21.35
2017-11-13T20:46:15.392Z,17.65
2017-11-13T20:48:43.567Z,18.90
2017-11-13T20:51:11.759Z,20.08
2017-11-13T20:53:43.319Z,21.08
2017-11-13T20:56:11.495Z,18.77
2017-11-13T20:58:39.712Z,25.98
2017-11-13T21:01:07.898Z,24.77
2017-11-13T21:03:36.049Z,21.70
2017-11-13T21:06:04.237Z,24.85
2017-11-13T21:08:32.459Z,20.88
2017-11-13T21:11:00.638Z,23.70
2017-11-13T21:13:28.946Z,24.35
2017-11-13T21:15:57.110Z,29.73
2017-11-13T21:18:25.364Z,31.92
2017-11-13T21:20:53.543Z,29.27
2017-11-13T21:23:27.597Z,29.30
2017-11-13T21:25:55.845Z,26.67
2017-11-13T21:28:24.018Z,28.02
2017-11-13T21:30:52.180Z,29.12
2017-11-13T21:33:20.457Z,26.17
2017-11-13T21:35:49.929Z,15.60
2017-11-13T21:38:18.145Z,27.20
2017-11-13T21:40:46.370Z,25.42
2017-11-13T21:43:14.541Z,18.20
2017-11-13T21:45:42.681Z,17.40
2017-11-13T21:48:10.846Z,17.33
2017-11-13T21:50:39.012Z,28.67
2017-11-13T21:53:07.434Z,24.87
2017-11-13T21:55:35.603Z,15.52
2017-11-13T21:58:03.759Z,22.20
2017-11-13T22:00:31.912Z,22.17
2017-11-13T22:03:41.225Z,19.55
2017-11-13T22:06:09.400Z,27.27
2017-11-13T22:08:37.554Z,26.10
2017-11-13T22:11:07.974Z,18.42
2017-11-13T22:13:36.915Z,21.77
2017-11-13T22:16:05.066Z,17.70
2017-11-13T22:18:33.249Z,28.05
2017-11-13T22:21:02.154Z,22.75
2017-11-13T22:23:30.442Z,37.05
2017-11-13T22:25:59.200Z,29.77
2017-11-13T22:28:27.915Z,21.08
2017-11-13T22:31:20.128Z,23.65
2017-11-13T22:33:49.400Z,26.83
2017-11-13T22:36:18.159Z,19.00
2017-11-13T22:38:46.320Z,21.73
2017-11-13T22:41:14.481Z,17.98
2017-11-13T22:43:43.164Z,20.90
2017-11-13T22:46:11.338Z,21.33
2017-11-13T22:48:39.570Z,23.40
2017-11-13T22:51:09.520Z,32.33
2017-11-13T22:53:37.815Z,26.52
2017-11-13T22:56:05.977Z,24.40
2017-11-13T22:58:34.178Z,27.52
2017-11-13T23:01:03.067Z,27.35
2017-11-13T23:03:31.308Z,27.95
2017-11-13T23:05:59.470Z,31.02
2017-11-13T23:08:28.664Z,26.45
2017-11-13T23:10:56.826Z,22.13
2017-11-13T23:13:26.081Z,25.45
2017-11-13T23:15:55.137Z,31.67
2017-11-13T23:18:23.300Z,28.73
2017-11-13T23:20:51.472Z,30.33
2017-11-13T23:23:19.654Z,39.83
2017-11-13T23:25:47.816Z,30.73
2017-11-13T23:28:16.020Z,34.33
2017-11-13T23:30:44.195Z,31.08
2017-11-13T23:33:12.441Z,28.95
2017-11-13T23:35:40.616Z,29.17
2017-11-13T23:38:09.655Z,22.08
2017-11-13T23:40:38.287Z,34.67
2017-11-13T23:43:06.467Z,27.05
2017-11-13T23:45:34.630Z,25.30
2017-11-13T23:48:02.809Z,24.80
2017-11-13T23:50:30.971Z,24.00
2017-11-13T23:52:59.148Z,29.87
2017-11-13T23:55:27.340Z,23.27
2017-11-13T23:57:55.503Z,26.45
